createdAt,value
2018-02-20T00:01:46.628Z,2.53
2018-02-20T00:04:14.929Z,2.37
2018-02-20T00:06:43.253Z,2.27
2018-02-20T00:09:11.545Z,2.10
2018-02-20T00:11:39.842Z,1.80
2018-02-20T00:14:08.158Z,2.00
2018-02-20T00:16:36.457Z,3.00
2018-02-20T00:19:04.733Z,2.00
2018-02-20T00:21:33.015Z,1.87
2018-02-20T00:24:01.310Z,2.17
2018-02-20T00:26:29.598Z,1.83
2018-02-20T00:28:57.888Z,3.60
2018-02-20T00:31:26.193Z,2.00
2018-02-20T00:33:54.493Z,3.03
2018-02-20T00:36:22.786Z,4.20
2018-02-20T00:38:51.085Z,1.53
2018-02-20T00:41:19.394Z,1.70
2018-02-20T00:43:47.698Z,2.27
2018-02-20T00:46:15.998Z,2.17
2018-02-20T00:48:44.317Z,1.70
2018-02-20T00:51:12.603Z,2.77
2018-02-20T00:53:40.914Z,3.90
2018-02-20T00:56:09.214Z,2.47
2018-02-20T00:58:37.524Z,3.23
2018-02-20T01:01:05.826Z,2.43
2018-02-20T01:03:34.125Z,3.13
2018-02-20T01:06:02.441Z,1.40
2018-02-20T01:08:30.736Z,1.33
2018-02-20T01:10:59.033Z,4.07
2018-02-20T01:13:27.328Z,1.43
2018-02-20T01:15:55.632Z,1.93
2018-02-20T01:18:23.940Z,2.37
2018-02-20T01:20:52.043Z,1.70
2018-02-20T01:23:20.337Z,1.10
2018-02-20T01:25:48.641Z,2.73
2018-02-20T01:28:16.947Z,1.60
2018-02-20T01:30:45.269Z,1.27
2018-02-20T01:33:13.588Z,1.83
2018-02-20T01:35:41.884Z,2.00
2018-02-20T01:38:10.189Z,3.87
2018-02-20T01:40:38.490Z,1.40
2018-02-20T01:43:06.807Z,4.27
2018-02-20T01:45:35.107Z,3.83
2018-02-20T01:48:03.396Z,2.70
2018-02-20T01:50:31.686Z,6.93
2018-02-20T01:52:59.993Z,1.67
2018-02-20T01:55:28.272Z,1.50
2018-02-20T01:57:56.560Z,1.53
2018-02-20T02:00:24.866Z,2.50
2018-02-20T02:02:53.158Z,2.60
2018-02-20T02:05:21.469Z,2.87
2018-02-20T02:07:49.798Z,3.00
2018-02-20T02:10:18.103Z,1.53
2018-02-20T02:12:46.383Z,2.03
2018-02-20T02:15:14.675Z,2.27
2018-02-20T02:17:42.992Z,4.07
2018-02-20T02:20:11.286Z,2.23
2018-02-20T02:22:39.588Z,1.80
2018-02-20T02:25:07.882Z,2.97
2018-02-20T02:27:36.166Z,3.10
2018-02-20T02:30:04.453Z,2.20
2018-02-20T02:32:32.761Z,1.80
2018-02-20T02:35:01.056Z,1.50
2018-02-20T02:37:29.335Z,2.60
2018-02-20T02:39:57.624Z,3.33
2018-02-20T02:42:25.925Z,4.77
2018-02-20T02:44:54.227Z,7.17
2018-02-20T02:47:22.528Z,6.67
2018-02-20T02:49:50.857Z,9.07
2018-02-20T02:52:19.163Z,9.00
2018-02-20T02:54:47.468Z,13.83
2018-02-20T02:57:15.767Z,13.87
2018-02-20T02:59:44.048Z,30.80
2018-02-20T03:02:12.344Z,28.03
2018-02-20T03:04:40.643Z,24.10
2018-02-20T03:07:09.031Z,21.60
2018-02-20T03:09:37.345Z,17.67
2018-02-20T03:12:05.642Z,16.10
2018-02-20T03:14:33.935Z,16.33
2018-02-20T03:17:02.231Z,14.47
2018-02-20T03:19:30.525Z,5.50
2018-02-20T03:21:58.824Z,6.07
2018-02-20T03:24:27.103Z,7.70
2018-02-20T03:26:55.397Z,6.40
2018-02-20T03:29:23.684Z,8.07
2018-02-20T03:31:51.975Z,6.40
2018-02-20T03:34:20.275Z,6.63
2018-02-20T03:36:48.773Z,6.17
2018-02-20T03:39:17.150Z,6.10
2018-02-20T03:41:45.439Z,5.93
2018-02-20T03:44:13.745Z,5.80
2018-02-20T03:46:42.036Z,7.13
2018-02-20T03:49:10.330Z,6.20
2018-02-20T03:51:38.619Z,5.27
2018-02-20T03:54:06.902Z,6.50
2018-02-20T03:56:35.191Z,7.93
2018-02-20T03:59:03.475Z,6.10
2018-02-20T04:01:31.805Z,4.90
2018-02-20T04:04:00.086Z,5.30
2018-02-20T04:06:28.367Z,6.07
2018-02-20T04:08:56.641Z,8.23
2018-02-20T04:11:24.922Z,7.47
2018-02-20T04:13:53.419Z,6.90
2018-02-20T04:16:21.719Z,9.87
2018-02-20T04:18:50.020Z,9.87
2018-02-20T04:21:18.321Z,13.23
2018-02-20T04:23:46.618Z,14.77
2018-02-20T04:26:15.043Z,19.10
2018-02-20T04:28:43.363Z,12.63
2018-02-20T04:31:11.665Z,11.57
2018-02-20T04:33:39.969Z,18.17
2018-02-20T04:36:08.273Z,15.93
2018-02-20T04:38:36.592Z,13.13
2018-02-20T04:41:04.908Z,13.97
2018-02-20T04:43:33.198Z,10.73
2018-02-20T04:46:01.500Z,9.00
2018-02-20T04:48:29.787Z,17.30
2018-02-20T04:50:58.080Z,8.73
2018-02-20T04:53:26.362Z,11.07
2018-02-20T04:55:54.574Z,8.83
2018-02-20T04:58:22.870Z,6.37
2018-02-20T05:00:51.171Z,9.87
2018-02-20T05:03:19.708Z,8.07
2018-02-20T05:05:48.010Z,7.60
2018-02-20T05:08:16.303Z,8.27
2018-02-20T05:10:44.590Z,5.10
2018-02-20T05:13:12.922Z,6.00
2018-02-20T05:15:41.262Z,4.07
2018-02-20T05:18:09.579Z,4.40
2018-02-20T05:20:37.872Z,6.73
2018-02-20T05:23:05.976Z,3.60
2018-02-20T05:25:34.271Z,3.70
2018-02-20T05:28:02.579Z,4.70
2018-02-20T05:30:30.857Z,4.00
2018-02-20T05:32:59.182Z,5.20
2018-02-20T05:35:27.574Z,8.87
2018-02-20T05:37:55.888Z,12.67
2018-02-20T05:40:24.174Z,11.30
2018-02-20T05:42:52.467Z,10.43
2018-02-20T05:45:20.750Z,11.00
2018-02-20T05:47:49.036Z,12.70
2018-02-20T05:50:17.341Z,8.87
2018-02-20T05:52:45.629Z,9.23
2018-02-20T05:55:13.915Z,8.80
2018-02-20T05:57:42.219Z,9.03
2018-02-20T06:00:10.522Z,9.20
2018-02-20T06:02:38.841Z,8.87
2018-02-20T06:05:07.154Z,8.03
2018-02-20T06:07:35.459Z,9.30
2018-02-20T06:10:03.752Z,11.77
2018-02-20T06:12:32.087Z,11.80
2018-02-20T06:15:00.399Z,9.90
2018-02-20T06:17:28.693Z,7.43
2018-02-20T06:19:57.002Z,7.10
2018-02-20T06:22:25.306Z,6.63
2018-02-20T06:24:53.594Z,10.10
2018-02-20T06:27:21.916Z,18.93
2018-02-20T06:29:50.199Z,8.17
2018-02-20T06:32:18.507Z,9.40
2018-02-20T06:34:46.825Z,8.67
2018-02-20T06:37:15.111Z,13.60
2018-02-20T06:39:43.417Z,11.50
2018-02-20T06:42:11.694Z,8.20
2018-02-20T06:44:39.978Z,8.80
2018-02-20T06:47:08.280Z,6.90
2018-02-20T06:49:36.583Z,7.00
2018-02-20T06:52:04.908Z,7.60
2018-02-20T06:54:33.216Z,10.37
2018-02-20T06:57:01.526Z,6.73
2018-02-20T06:59:29.825Z,9.00
2018-02-20T07:01:58.134Z,15.93
2018-02-20T07:04:26.423Z,30.40
2018-02-20T07:06:54.734Z,30.00
2018-02-20T07:09:23.063Z,29.90
2018-02-20T07:11:51.367Z,26.33
2018-02-20T07:14:19.674Z,22.17
2018-02-20T07:16:47.842Z,20.63
2018-02-20T07:19:16.178Z,19.17
2018-02-20T07:21:44.479Z,17.53
2018-02-20T07:24:12.770Z,18.70
2018-02-20T07:26:41.064Z,18.80
2018-02-20T07:29:09.399Z,17.57
2018-02-20T07:31:37.702Z,18.63
2018-02-20T07:34:06.002Z,22.70
2018-02-20T07:36:34.338Z,19.43
2018-02-20T07:39:02.640Z,21.03
2018-02-20T07:41:30.932Z,20.43
2018-02-20T07:43:59.237Z,18.10
2018-02-20T07:46:27.534Z,16.87
2018-02-20T07:48:55.844Z,17.83
2018-02-20T07:51:24.134Z,14.87
2018-02-20T07:53:52.444Z,18.23
2018-02-20T07:56:20.764Z,15.23
2018-02-20T07:58:49.124Z,17.90
2018-02-20T08:01:17.438Z,16.17
2018-02-20T08:03:45.735Z,16.00
2018-02-20T08:06:14.085Z,17.40
2018-02-20T08:08:42.398Z,16.97
2018-02-20T08:11:10.736Z,12.67
2018-02-20T08:13:39.049Z,14.80
2018-02-20T08:16:07.369Z,14.37
2018-02-20T08:18:35.699Z,14.30
2018-02-20T08:21:03.986Z,13.33
2018-02-20T08:23:32.274Z,13.20
2018-02-20T08:26:00.578Z,12.13
2018-02-20T08:28:28.884Z,13.20
2018-02-20T08:30:57.187Z,11.13
2018-02-20T08:33:25.504Z,11.60
2018-02-20T08:35:53.833Z,12.00
2018-02-20T08:38:22.141Z,11.17
2018-02-20T08:40:50.453Z,10.23
2018-02-20T08:43:18.734Z,10.47
2018-02-20T08:45:47.045Z,10.33
2018-02-20T08:48:15.368Z,10.37
2018-02-20T08:50:43.671Z,11.83
2018-02-20T08:53:11.963Z,11.27
2018-02-20T08:55:40.251Z,9.90
2018-02-20T08:58:08.551Z,10.10
2018-02-20T09:00:36.847Z,11.60
2018-02-20T09:03:05.135Z,10.67
2018-02-20T09:05:33.443Z,9.10
2018-02-20T09:08:01.762Z,8.83
2018-02-20T09:10:30.089Z,9.43
2018-02-20T09:12:58.395Z,9.33
2018-02-20T09:15:26.692Z,8.20
2018-02-20T09:17:54.983Z,8.57
2018-02-20T09:20:23.284Z,8.77
2018-02-20T09:22:51.590Z,10.23
2018-02-20T09:25:19.873Z,8.17
2018-02-20T09:27:48.175Z,8.33
2018-02-20T09:30:16.502Z,8.33
2018-02-20T09:32:44.793Z,8.60
2018-02-20T09:35:13.087Z,8.93
2018-02-20T09:37:41.403Z,7.80
2018-02-20T09:40:10.076Z,7.43
2018-02-20T09:42:38.388Z,7.37
2018-02-20T09:45:06.680Z,7.53
2018-02-20T09:47:34.997Z,6.83
2018-02-20T09:50:03.281Z,7.57
2018-02-20T09:52:31.575Z,7.43
2018-02-20T09:54:59.901Z,7.43
2018-02-20T09:57:28.216Z,6.47
2018-02-20T09:59:56.672Z,6.97
2018-02-20T10:02:24.970Z,6.80
2018-02-20T10:04:53.260Z,6.87
2018-02-20T10:07:21.566Z,7.03
2018-02-20T10:09:49.870Z,7.13
2018-02-20T10:12:18.172Z,7.30
2018-02-20T10:14:46.472Z,6.77
2018-02-20T10:17:14.775Z,6.20
2018-02-20T10:19:43.069Z,6.80
2018-02-20T10:22:11.355Z,6.87
2018-02-20T10:24:39.652Z,6.67
2018-02-20T10:27:07.976Z,7.00
2018-02-20T10:29:36.273Z,6.57
2018-02-20T10:32:04.590Z,7.63
2018-02-20T10:34:33.077Z,7.10
2018-02-20T10:37:01.369Z,6.17
2018-02-20T10:39:29.665Z,6.13
2018-02-20T10:41:58.142Z,7.03
2018-02-20T10:44:26.445Z,6.60
2018-02-20T10:46:54.751Z,6.00
2018-02-20T10:49:23.072Z,6.40
2018-02-20T10:51:51.356Z,5.67
2018-02-20T10:54:19.649Z,6.50
2018-02-20T10:56:47.957Z,6.33
2018-02-20T10:59:16.258Z,5.80
2018-02-20T11:01:44.539Z,5.70
2018-02-20T11:04:12.843Z,7.70
2018-02-20T11:06:41.150Z,7.93
2018-02-20T11:09:09.623Z,6.30
2018-02-20T11:11:37.929Z,7.17
2018-02-20T11:14:06.239Z,5.73
2018-02-20T11:16:34.526Z,5.83
2018-02-20T11:19:02.824Z,10.57
2018-02-20T11:21:31.116Z,8.00
2018-02-20T11:23:59.408Z,5.90
2018-02-20T11:26:27.690Z,5.90
2018-02-20T11:28:56.007Z,6.57
2018-02-20T11:31:24.305Z,9.07
2018-02-20T11:33:52.608Z,5.93
2018-02-20T11:36:20.945Z,6.87
2018-02-20T11:38:49.237Z,5.87
2018-02-20T11:41:17.537Z,6.07
2018-02-20T11:43:45.884Z,7.97
2018-02-20T11:46:14.340Z,9.80
2018-02-20T11:48:42.656Z,9.07
2018-02-20T11:51:10.962Z,13.03
2018-02-20T11:53:39.258Z,15.20
2018-02-20T11:56:07.372Z,15.53
2018-02-20T11:58:35.709Z,18.03
2018-02-20T12:01:04.022Z,19.83
2018-02-20T12:03:32.315Z,19.50
2018-02-20T12:06:00.625Z,21.73
2018-02-20T12:08:28.951Z,19.30
2018-02-20T12:10:57.274Z,17.47
2018-02-20T12:13:25.577Z,17.23
2018-02-20T12:15:53.921Z,19.10
2018-02-20T12:18:22.230Z,17.00
2018-02-20T12:20:50.531Z,15.83
2018-02-20T12:23:18.838Z,15.43
2018-02-20T12:25:47.179Z,17.30
2018-02-20T12:28:15.475Z,15.47
2018-02-20T12:30:43.811Z,14.80
2018-02-20T12:33:12.125Z,16.13
2018-02-20T12:35:40.413Z,18.27
2018-02-20T12:38:08.715Z,16.83
2018-02-20T12:40:37.029Z,15.80
2018-02-20T12:43:05.332Z,15.07
2018-02-20T12:45:33.636Z,15.37
2018-02-20T12:48:02.005Z,13.50
2018-02-20T12:50:30.443Z,14.20
2018-02-20T12:52:58.747Z,14.03
2018-02-20T12:55:27.075Z,14.47
2018-02-20T12:57:55.387Z,12.90
2018-02-20T13:00:23.717Z,12.73
2018-02-20T13:02:52.060Z,12.73
2018-02-20T13:05:20.379Z,13.00
2018-02-20T13:07:48.713Z,12.67
2018-02-20T13:10:17.200Z,13.00
2018-02-20T13:12:45.517Z,13.03
2018-02-20T13:15:13.823Z,14.53
2018-02-20T13:17:42.132Z,13.67
2018-02-20T13:20:10.443Z,15.13
2018-02-20T13:22:38.755Z,15.00
2018-02-20T13:25:07.048Z,25.60
2018-02-20T13:27:35.405Z,37.63
2018-02-20T13:30:03.719Z,25.20
2018-02-20T13:32:32.029Z,21.67
2018-02-20T13:35:00.342Z,21.63
2018-02-20T13:37:28.685Z,18.83
2018-02-20T13:39:56.997Z,19.90
2018-02-20T13:42:25.298Z,19.47
2018-02-20T13:44:53.641Z,18.07
2018-02-20T13:47:23.502Z,18.63
2018-02-20T13:49:51.804Z,18.03
2018-02-20T13:52:20.198Z,19.43
2018-02-20T13:54:48.552Z,19.33
2018-02-20T13:57:16.838Z,17.30
2018-02-20T13:59:45.149Z,17.93
2018-02-20T14:02:13.434Z,17.77
2018-02-20T14:04:41.745Z,22.57
2018-02-20T14:07:10.071Z,18.67
2018-02-20T14:09:38.377Z,15.67
2018-02-20T14:12:06.818Z,16.13
2018-02-20T14:14:35.140Z,15.37
2018-02-20T14:17:03.438Z,15.33
2018-02-20T14:19:31.762Z,15.50
2018-02-20T14:22:00.061Z,16.03
2018-02-20T14:24:28.361Z,13.50
2018-02-20T14:26:56.668Z,14.40
2018-02-20T14:29:24.972Z,14.50
2018-02-20T14:31:53.294Z,14.03
2018-02-20T14:34:21.638Z,12.83
2018-02-20T14:36:49.944Z,15.37
2018-02-20T14:39:18.245Z,16.40
2018-02-20T14:41:46.548Z,13.40
2018-02-20T14:44:14.869Z,13.10
2018-02-20T14:46:43.158Z,15.47
2018-02-20T14:49:11.550Z,12.43
2018-02-20T14:51:39.868Z,12.97
2018-02-20T14:54:08.404Z,13.63
2018-02-20T14:56:36.785Z,13.00
2018-02-20T14:59:05.093Z,12.43
2018-02-20T15:01:33.394Z,15.43
2018-02-20T15:04:01.736Z,12.53
2018-02-20T15:06:30.039Z,13.57
2018-02-20T15:08:58.363Z,12.90
2018-02-20T15:11:26.669Z,12.60
2018-02-20T15:13:54.975Z,13.37
2018-02-20T15:16:23.337Z,12.13
2018-02-20T15:18:51.663Z,12.50
2018-02-20T15:21:20.003Z,11.83
2018-02-20T15:23:48.924Z,11.57
2018-02-20T15:26:17.224Z,12.13
2018-02-20T15:28:45.536Z,11.73
2018-02-20T15:31:13.933Z,10.33
2018-02-20T15:33:42.223Z,13.37
2018-02-20T15:36:10.646Z,12.03
2018-02-20T15:38:39.029Z,14.83
2018-02-20T15:41:07.349Z,11.93
2018-02-20T15:43:35.673Z,13.07
2018-02-20T15:46:04.004Z,11.53
2018-02-20T15:48:32.311Z,14.93
2018-02-20T15:51:00.618Z,10.63
2018-02-20T15:53:28.931Z,11.53
2018-02-20T15:55:57.228Z,12.47
2018-02-20T15:58:25.556Z,11.57
2018-02-20T16:00:53.886Z,10.87
2018-02-20T16:03:22.203Z,12.17
2018-02-20T16:05:50.510Z,11.20
2018-02-20T16:08:18.827Z,12.53
2018-02-20T16:10:47.127Z,13.30
2018-02-20T16:13:15.447Z,11.97
2018-02-20T16:15:55.455Z,11.70
2018-02-20T16:18:23.808Z,12.57
2018-02-20T16:20:52.128Z,11.03
2018-02-20T16:23:20.431Z,12.03
2018-02-20T16:25:48.749Z,11.37
2018-02-20T16:28:17.069Z,12.07
2018-02-20T16:30:45.404Z,11.80
2018-02-20T16:33:13.724Z,12.07
2018-02-20T16:35:42.024Z,10.60
2018-02-20T16:38:10.341Z,10.57
2018-02-20T16:40:38.681Z,11.30
2018-02-20T16:43:06.981Z,10.50
2018-02-20T16:45:35.473Z,10.53
2018-02-20T16:48:03.789Z,10.97
2018-02-20T16:50:32.090Z,10.63
2018-02-20T16:53:00.235Z,9.97
2018-02-20T16:55:28.562Z,10.40
2018-02-20T16:57:57.809Z,9.63
2018-02-20T17:00:26.109Z,11.53
2018-02-20T17:02:54.428Z,9.70
2018-02-20T17:05:22.774Z,8.87
2018-02-20T17:07:51.082Z,9.20
2018-02-20T17:10:19.533Z,9.67
2018-02-20T17:12:47.832Z,9.60
2018-02-20T17:15:16.394Z,9.37
2018-02-20T17:17:44.813Z,9.23
2018-02-20T17:20:13.143Z,9.50
2018-02-20T17:22:42.222Z,10.20
2018-02-20T17:25:12.179Z,9.93
2018-02-20T17:27:40.648Z,9.27
2018-02-20T17:30:09.027Z,10.30
2018-02-20T17:32:37.353Z,10.97
2018-02-20T17:35:05.728Z,10.43
2018-02-20T17:37:34.096Z,11.07
2018-02-20T17:40:02.395Z,10.10
2018-02-20T17:42:30.703Z,9.73
2018-02-20T17:44:59.042Z,11.43
2018-02-20T17:47:27.338Z,9.93
2018-02-20T17:49:55.657Z,9.50
2018-02-20T17:52:23.759Z,9.07
2018-02-20T17:54:52.106Z,10.00
2018-02-20T17:57:20.396Z,8.13
2018-02-20T17:59:48.694Z,9.27
2018-02-20T18:02:17.038Z,10.07
2018-02-20T18:04:45.831Z,9.80
2018-02-20T18:07:14.173Z,14.40
2018-02-20T18:09:42.462Z,9.83
2018-02-20T18:12:10.790Z,11.07
2018-02-20T18:14:38.973Z,8.80
2018-02-20T18:17:07.469Z,14.80
2018-02-20T18:19:35.853Z,10.70
2018-02-20T18:22:04.160Z,10.57
2018-02-20T18:24:32.485Z,10.43
2018-02-20T18:27:00.819Z,10.10
2018-02-20T18:29:29.125Z,9.77
2018-02-20T18:31:57.415Z,9.77
2018-02-20T18:34:27.296Z,14.93
2018-02-20T18:36:55.630Z,9.30
2018-02-20T18:39:23.981Z,10.27
2018-02-20T18:41:52.281Z,9.30
2018-02-20T18:44:20.766Z,13.00
2018-02-20T18:46:49.171Z,8.77
2018-02-20T18:49:17.970Z,9.43
2018-02-20T18:51:46.287Z,9.07
2018-02-20T18:54:14.577Z,9.10
2018-02-20T18:56:42.936Z,9.53
2018-02-20T18:59:11.554Z,9.67
2018-02-20T19:01:40.633Z,8.40
2018-02-20T19:04:09.188Z,10.00
2018-02-20T19:06:38.129Z,8.37
2018-02-20T19:09:08.581Z,11.33
2018-02-20T19:11:36.995Z,8.50
2018-02-20T19:14:05.304Z,8.10
2018-02-20T19:16:34.098Z,8.57
2018-02-20T19:19:02.244Z,8.23
2018-02-20T19:21:30.579Z,9.20
2018-02-20T19:23:58.864Z,7.87
2018-02-20T19:26:27.160Z,8.30
2018-02-20T19:28:55.443Z,8.10
2018-02-20T19:31:23.731Z,7.83
2018-02-20T19:33:52.591Z,8.00
2018-02-20T19:36:20.895Z,8.23
2018-02-20T19:38:49.951Z,8.23
2018-02-20T19:41:18.270Z,7.70
2018-02-20T19:43:46.610Z,7.70
2018-02-20T19:46:15.002Z,8.00
2018-02-20T19:48:43.689Z,7.50
2018-02-20T19:51:11.996Z,8.53
2018-02-20T19:53:40.289Z,7.50
2018-02-20T19:56:08.997Z,7.80
2018-02-20T19:58:37.309Z,7.43
2018-02-20T20:01:05.659Z,7.43
2018-02-20T20:03:33.966Z,8.07
2018-02-20T20:06:02.882Z,9.23
2018-02-20T20:08:31.186Z,7.23
2018-02-20T20:10:59.499Z,7.50
2018-02-20T20:13:27.873Z,6.90
2018-02-20T20:15:56.185Z,7.10
2018-02-20T20:18:24.467Z,6.63
2018-02-20T20:20:52.780Z,6.63
2018-02-20T20:23:21.077Z,7.63
2018-02-20T20:25:50.141Z,6.63
2018-02-20T20:28:18.448Z,7.67
2018-02-20T20:30:46.811Z,8.33
2018-02-20T20:33:15.111Z,6.47
2018-02-20T20:35:43.468Z,7.23
2018-02-20T20:38:11.932Z,6.33
2018-02-20T20:40:40.270Z,12.67
2018-02-20T20:43:08.618Z,6.63
2018-02-20T20:45:37.137Z,5.90
2018-02-20T20:48:05.456Z,6.73
2018-02-20T20:50:33.783Z,6.97
2018-02-20T20:53:02.088Z,9.37
2018-02-20T20:55:30.381Z,8.87
2018-02-20T20:57:58.683Z,7.90
2018-02-20T21:00:27.006Z,8.90
2018-02-20T21:02:55.398Z,8.07
2018-02-20T21:05:23.715Z,7.93
2018-02-20T21:07:52.238Z,8.00
2018-02-20T21:10:20.550Z,8.83
2018-02-20T21:12:48.845Z,9.27
2018-02-20T21:15:17.270Z,7.83
2018-02-20T21:17:45.610Z,8.33
2018-02-20T21:20:13.958Z,9.33
2018-02-20T21:22:42.281Z,9.17
2018-02-20T21:25:10.605Z,9.10
2018-02-20T21:27:38.902Z,7.37
2018-02-20T21:30:07.199Z,6.10
2018-02-20T21:32:35.543Z,7.57
2018-02-20T21:35:03.829Z,6.57
2018-02-20T21:37:32.152Z,8.00
2018-02-20T21:40:00.447Z,6.83
2018-02-20T21:42:28.759Z,6.63
2018-02-20T21:44:57.096Z,6.90
2018-02-20T21:47:25.407Z,8.10
2018-02-20T21:49:53.752Z,8.27
2018-02-20T21:52:22.062Z,7.93
2018-02-20T21:54:50.350Z,8.97
2018-02-20T21:57:18.683Z,9.13
2018-02-20T21:59:47.008Z,7.63
2018-02-20T22:02:15.530Z,7.30
2018-02-20T22:04:43.817Z,7.00
2018-02-20T22:07:13.010Z,8.43
2018-02-20T22:09:41.310Z,8.20
2018-02-20T22:12:09.612Z,8.37
2018-02-20T22:14:38.000Z,10.13
2018-02-20T22:17:06.294Z,9.77
2018-02-20T22:19:34.624Z,10.03
2018-02-20T22:22:02.916Z,10.37
2018-02-20T22:24:31.233Z,9.27
2018-02-20T22:26:59.546Z,8.70
2018-02-20T22:29:27.860Z,10.70
2018-02-20T22:31:56.254Z,9.17
2018-02-20T22:34:24.579Z,8.80
2018-02-20T22:36:53.539Z,8.47
2018-02-20T22:39:21.841Z,8.83
2018-02-20T22:41:50.140Z,8.43
2018-02-20T22:44:18.429Z,8.67
2018-02-20T22:46:46.754Z,8.67
2018-02-20T22:49:15.057Z,7.90
2018-02-20T22:51:43.361Z,7.57
2018-02-20T22:54:11.678Z,7.50
2018-02-20T22:56:39.963Z,8.27
2018-02-20T22:59:08.255Z,8.07
2018-02-20T23:01:36.581Z,7.43
2018-02-20T23:04:04.884Z,7.60
2018-02-20T23:06:33.180Z,8.13
2018-02-20T23:09:01.476Z,7.30
2018-02-20T23:11:41.002Z,9.33
2018-02-20T23:14:09.312Z,7.63
2018-02-20T23:16:37.622Z,10.57
2018-02-20T23:19:05.925Z,6.53
2018-02-20T23:21:34.248Z,6.83
2018-02-20T23:24:02.535Z,7.00
2018-02-20T23:26:30.866Z,6.37
2018-02-20T23:28:59.156Z,6.23
2018-02-20T23:31:27.451Z,5.67
2018-02-20T23:33:55.765Z,6.10
2018-02-20T23:36:24.073Z,5.87
2018-02-20T23:38:52.402Z,6.03
2018-02-20T23:41:20.709Z,5.50
2018-02-20T23:43:49.008Z,6.37
2018-02-20T23:46:17.298Z,6.10
2018-02-20T23:48:45.594Z,5.97
2018-02-20T23:51:19.467Z,5.20
2018-02-20T23:53:47.758Z,5.30
2018-02-20T23:56:16.065Z,5.50
2018-02-20T23:58:44.352Z,5.30
